Delta, Utah Weather observations

Data are for observation ending at time listed.
 Day   Time    Ave.   Ave.  Ave.  Vector   Max.   Stn.    Total    Solar   Ave.  
  of    of     Air    Rel.  Wind   Wind    Wind   Baro.  Precip.   Rad.    Soil  
Year   Day     Temp.  Hum.  Speed  Dir.    Gust   Pres.                    Temp. 
2014   (MST)    F      %     mph   deg.    mph     mb.     in.     W/m2     F   
------------------------------------------------------------------------------
 324   12:20   47.6    27    2.6   177      5.3   861.5    0.00     245    99999.0
 324   12:30   47.9    26    2.4   164      5.4   861.3    0.00     324    99999.0
 324   12:40   48.8    24    1.9   211      4.3   861.1    0.00     382    99999.0
 324   12:50   48.9    23    2.4   218      4.5   860.9    0.00     301    99999.0
 324   13:00   49.5    22    1.7   240      3.8   860.7    0.00     187    99999.0
 324   13:10   49.6    22    2.2   267      3.9   860.6    0.00     243    99999.0
 324   13:20   50.3    22    1.9   271      4.0   860.5    0.00     341    99999.0
 324   13:30   50.5    22    2.7   273      4.7   860.5    0.00     337    99999.0
 324   13:40   50.5    22    1.6   276      3.3   860.4    0.00     338    99999.0
 324   13:50   50.6    22    2.4   257      4.4   860.2    0.00     357    99999.0
 324   14:00   50.9    21    2.0   255      5.0   860.2    0.00     228    99999.0
 324   14:10   50.7    21    3.4   269      5.9   860.2    0.00     147    99999.0
 324   14:20   51.2    22    2.9   264      5.3   860.1    0.00      63    99999.0
 324   14:30   51.5    21    2.5   296      5.6   860.0    0.00      52    99999.0
 324   14:40   51.9    22    2.7   286      5.6   860.1    0.00      97    99999.0
 324   14:50   52.2    22    2.0   297      5.0   860.1    0.00     126    99999.0
 324   15:00   52.4    22    1.6   243      4.4   860.0    0.00     100    99999.0
 324   15:10   52.5    22    1.7   192      3.7   859.9    0.00     132    99999.0
 324   15:20   52.7    21    1.9   197      3.7   859.9    0.00     165    99999.0
 324   15:30   52.4    21    1.6   142      3.3   859.8    0.00     112    99999.0
 324   15:40   51.8    22    1.8   149      4.5   859.8    0.00     109    99999.0
 324   15:50   52.4    21    1.7   181      3.4   859.8    0.00     144    99999.0
 324   16:00   52.4    21    1.1   167      2.6   859.8    0.00      65    99999.0
 324   16:10   51.6    22    0.9   286      2.7   859.7    0.00      21    99999.0
 324   16:20   51.4    22    1.1   354      1.8   859.8    0.00      18    99999.0
 324   16:30   51.3    22    1.5     3      3.1   859.8    0.00      20    99999.0
 324   16:40   51.5    22    0.3   351      1.2   859.8    0.00      33    99999.0
 324   16:50   50.4    23    0.1    35      0.9   859.8    0.00      10    99999.0
 324   17:00   49.0    24    0.0     0      0.0   859.8    0.00       6    99999.0
 324   17:10   48.0    25    0.0     0      0.0   859.8    0.00       5    99999.0
 324   17:20   46.8    27    0.3   309      1.0   859.9    0.00       1    99999.0
 324   17:30   45.3    29    0.0     0      0.0   859.8    0.00       0    99999.0
 324   17:40   44.5    29    0.0     0      0.0   859.8    0.00       0    99999.0
 324   17:50   43.7    30    0.0     0      0.0   859.8    0.00       0    99999.0
 324   18:00   43.0    31    0.0   312      0.8   859.8    0.00       0    99999.0
 324   18:10   42.6    32    0.1   312      0.8   859.9    0.00       0    99999.0
 324   18:20   41.6    33    0.6   350      1.5   859.9    0.00       0    99999.0
 324   18:30   41.4    33    1.4   358      1.8   859.8    0.00       0    99999.0
 324   18:40   41.4    33    1.5   353      2.3   859.8    0.00       0    99999.0
 324   18:50   41.1    34    1.7   343      2.2   859.8    0.00       0    99999.0
 324   19:00   40.9    34    1.6   340      2.7   859.8    0.00       0    99999.0
 324   19:10   41.3    33    3.0   347      3.9   859.8    0.00       0    99999.0
 324   19:20   40.8    34    2.0   356      3.5   859.8    0.00       0    99999.0
 324   19:30   39.9    35    1.5     4      2.1   859.8    0.00       0    99999.0
 324   19:40   39.4    36    2.2     2      2.9   859.8    0.00       0    99999.0
 324   19:50   39.3    36    1.6    10      2.6   859.7    0.00       0    99999.0
 324   20:00   39.3    36    0.2     6      1.0   859.7    0.00       0    99999.0
 324   20:10   38.3    38    0.3    38      1.3   859.7    0.00       0    99999.0
 324   20:20   37.3    39    0.0     0      0.0   859.6    0.00       0    99999.0
 324   20:30   36.6    40    0.1   295      1.2   859.5    0.00       0    99999.0
 324   20:40   36.1    41    1.9   352      3.1   859.4    0.00       0    99999.0
 324   20:50   35.5    42    0.5     3      1.8   859.5    0.00       0    99999.0
 324   21:00   35.3    42    1.0   343      3.1   859.4    0.00       0    99999.0
 324   21:10   35.2    42    2.3   357      3.5   859.2    0.00       0    99999.0
 324   21:20   35.0    42    2.0   332      3.6   859.2    0.00       0    99999.0
 324   21:30   33.8    45    2.2   355      3.6   859.1    0.00       0    99999.0
 324   21:40   33.5    45    2.6   352      3.7   859.2    0.00       0    99999.0
 324   21:50   33.0    47    0.6   355      2.8   859.2    0.00       0    99999.0
 324   22:00   32.7    48    1.1   316      2.4   859.1    0.00       0    99999.0
 324   22:10   32.1    49    1.7   181      3.6   859.1    0.00       0    99999.0
 324   22:20   30.6    52    1.0   189      2.3   859.1    0.00       0    99999.0
 324   22:30   30.5    52    0.2     0      1.7   859.0    0.00       0    99999.0
 324   22:40   30.7    52    2.3   359      3.7   858.8    0.00       0    99999.0
 324   22:50   31.0    52    1.4   352      3.4   858.8    0.00       0    99999.0
 324   23:00   31.2    52    0.7   127      2.3   858.7    0.00       0    99999.0
 324   23:10   31.4    51    0.2   323      1.3   858.7    0.00       0    99999.0
 324   23:20   31.4    51    1.5   273      2.9   858.8    0.00       0    99999.0
 324   23:30   31.3    51    0.7   346      1.7   858.8    0.00       0    99999.0
 324   23:40   30.7    53    0.7   305      1.7   858.9    0.00       0    99999.0
 324   23:50   30.4    54    1.1   317      2.3   858.8    0.00       0    99999.0
 325    0:00   30.1    53    1.8   296      3.4   858.9    0.00       0    99999.0
 325    0:10   30.1    53    0.3   323      1.7   858.9    0.00       0    99999.0
 325    0:20   29.7    54    2.5   355      4.1   858.8    0.00       0    99999.0
 325    0:30   30.2    52    2.9   345      4.0   858.7    0.00       0    99999.0
 325    0:40   30.5    52    1.1   317      2.2   858.9    0.00       0    99999.0
 325    0:50   29.9    53    1.9   328      3.4   859.0    0.00       0    99999.0
 325    1:00   29.9    53    0.8   359      2.8   859.0    0.00       0    99999.0
 325    1:10   29.5    53    0.7   112      3.0   859.0    0.00       0    99999.0
 325    1:20   27.2    57    2.1   118      3.7   859.0    0.00       0    99999.0
 325    1:30   26.1    59    1.4   126      2.3   859.0    0.00       0    99999.0
 325    1:40   26.0    60    1.4   110      2.1   859.0    0.00       0    99999.0
 325    1:50   26.1    60    1.5   130      3.0   859.1    0.00       0    99999.0
 325    2:00   26.6    60    1.8   128      4.2   859.0    0.00       0    99999.0
 325    2:10   26.7    60    2.3   163      4.2   859.2    0.00       0    99999.0
 325    2:20   26.5    60    1.3   142      2.3   859.2    0.00       0    99999.0
 325    2:30   26.9    60    1.6   192      3.1   859.3    0.00       0    99999.0
 325    2:40   27.6    62    1.7   217      3.1   859.2    0.00       0    99999.0
 325    2:50   28.4    60    2.8   257      5.0   859.2    0.00       0    99999.0
 325    3:00   27.5    58    1.3   266      2.6   859.2    0.00       0    99999.0
 325    3:10   27.4    60    1.1   355      1.9   859.1    0.00       0    99999.0
 325    3:20   26.9    61    1.5     7      2.3   859.0    0.00       0    99999.0
 325    3:30   26.7    62    0.8    17      1.9   859.0    0.00       0    99999.0
 325    3:40   26.5    62    0.1   112      1.6   859.0    0.00       0    99999.0
 325    3:50   26.6    62    0.7     7      2.1   859.0    0.00       0    99999.0
 325    4:00   26.9    62    1.0   327      2.3   859.1    0.00       0    99999.0
 325    4:10   27.1    62    0.4   142      1.2   859.1    0.00       0    99999.0
 325    4:20   27.5    62    1.0   151      1.7   859.2    0.00       0    99999.0
 325    4:30   27.1    62    1.2   107      2.1   859.2    0.00       0    99999.0
 325    4:40   26.9    62    0.2    85      0.7   859.2    0.00       0    99999.0
 325    4:50   27.0    62    0.1   158      0.9   859.2    0.00       0    99999.0
 325    5:00   27.2    62    0.0   245      0.4   859.2    0.00       0    99999.0
 325    5:10   27.5    62    0.1   245      0.9   859.1    0.00       0    99999.0
 325    5:20   27.6    62    0.3    12      1.5   859.1    0.00       0    99999.0
 325    5:30   27.9    62    0.3    46      1.5   859.1    0.00       0    99999.0
 325    5:40   27.8    62    0.0     0      0.0   859.1    0.00       0    99999.0
 325    5:50   28.1    63    0.0     0      0.0   859.1    0.00       0    99999.0
 325    6:00   28.3    62    0.0     0      0.0   859.1    0.00       0    99999.0
 325    6:10   28.5    62    0.7   245      1.8   859.1    0.00       0    99999.0
 325    6:20   28.7    62    0.6    22      1.8   859.1    0.00       0    99999.0
 325    6:30   28.5    63    0.7   149      1.8   859.1    0.00       0    99999.0
 325    6:40   29.1    62    0.9   211      2.0   859.3    0.00       0    99999.0
 325    6:50   28.8    62    0.4   128      1.3   859.2    0.00       0    99999.0
 325    7:00   28.3    63    1.5   325      2.6   859.4    0.00       0    99999.0
 325    7:10   27.3    65    2.3   268      3.7   859.5    0.00       0    99999.0
 325    7:20   26.8    68    0.9   277      2.6   859.5    0.00       0    99999.0
 325    7:30   26.9    71    1.3   257      2.0   859.6    0.00       2    99999.0
 325    7:40   26.8    72    2.2   267      4.5   859.6    0.00       6    99999.0
 325    7:50   26.4    68    2.4   277      5.0   859.9    0.00      12    99999.0
 325    8:00   26.1    67    2.1   272      4.8   860.0    0.00      20    99999.0
 325    8:10   25.8    66    2.8   278      5.6   860.1    0.00      26    99999.0
 325    8:20   25.6    64    2.3   294      4.7   860.2    0.00      30    99999.0
 325    8:30   25.5    62    1.7   319      4.8   860.3    0.00      30    99999.0
 325    8:40   25.5    61    2.4   352      3.7   860.3    0.00      31    99999.0
 325    8:50   25.9    61    1.8     1      3.4   860.3    0.00      34    99999.0
 325    9:00   27.1    61    0.9    17      2.3   860.4    0.00      52    99999.0
 325    9:10   29.4    58    1.4   149      3.5   860.7    0.00      98    99999.0
 325    9:20   30.8    55    3.2   143      4.7   860.8    0.00     140    99999.0
 325    9:30   32.1    54    3.1   126      5.6   860.8    0.00     123    99999.0
 325    9:40   32.2    55    3.6   142      5.3   861.0    0.00     230    99999.0
 325    9:50   33.9    52    2.5   137      3.9   861.0    0.00     172    99999.0
 325   10:00   35.2    49    2.4   144      3.7   860.9    0.00     249    99999.0
 325   10:10   37.0    48    1.9   134      3.6   860.8    0.00     252    99999.0
 325   10:20   37.8    45    2.7   179      5.4   860.7    0.00     255    99999.0
 325   10:30   37.7    45    3.1   180      5.6   860.7    0.00     166    99999.0
 325   10:40   38.3    44    3.5   185      7.5   860.6    0.00     191    99999.0
 325   10:50   38.8    43    3.2   200      5.5   860.7    0.00     190    99999.0
 325   11:00   39.3    43    3.1   169      6.0   860.7    0.00     286    99999.0
 325   11:10   39.6    42    3.3   180      6.1   860.7    0.00     311    99999.0
 325   11:20   40.4    41    3.0   182      5.3   860.5    0.00     251    99999.0
 325   11:30   41.4    40    3.1   203      5.3   860.4    0.00     252    99999.0
 325   11:40   42.3    39    2.8   200      6.1   860.3    0.00     296    99999.0
 325   11:50   43.1    37    2.0   205      6.1   860.2    0.00     149    99999.0
 325   12:00   44.1    36    2.1   189      4.8   860.1    0.00      94    99999.0
 325   12:10   45.1    34    2.1   221      3.8   860.0    0.00      94    99999.0

Return to Delta, Utah graphs page.


Western Regional Climate Center,wrcc@dri.edu